createdAt,value
2022-11-24T00:00:38.984Z,3.88
2022-11-24T00:03:18.054Z,3.83
2022-11-24T00:05:58.606Z,3.85
2022-11-24T00:08:34.901Z,3.82
2022-11-24T00:11:27.588Z,3.84
2022-11-24T00:13:58.515Z,3.81
2022-11-24T00:16:39.001Z,3.81
2022-11-24T00:19:19.764Z,3.82
2022-11-24T00:21:58.262Z,3.82
2022-11-24T00:24:37.956Z,3.81
2022-11-24T00:27:16.074Z,3.76
2022-11-24T00:29:54.531Z,3.82
2022-11-24T00:32:36.580Z,3.87
2022-11-24T00:35:16.792Z,3.81
2022-11-24T00:37:49.412Z,3.84
2022-11-24T00:40:34.714Z,3.81
2022-11-24T00:43:24.659Z,3.83
2022-11-24T00:45:57.883Z,3.76
2022-11-24T00:48:37.960Z,3.80
2022-11-24T00:51:16.877Z,3.80
2022-11-24T00:53:56.714Z,3.78
2022-11-24T00:56:33.854Z,3.78
2022-11-24T00:59:10.976Z,3.84
2022-11-24T01:01:53.184Z,3.80
2022-11-24T01:04:24.202Z,3.81
2022-11-24T01:07:05.435Z,3.84
2022-11-24T01:09:46.493Z,3.82
2022-11-24T01:12:34.302Z,3.82
2022-11-24T01:15:37.869Z,3.81
2022-11-24T01:18:17.002Z,3.78
2022-11-24T01:20:48.345Z,3.75
2022-11-24T01:23:31.692Z,3.79
2022-11-24T01:26:13.018Z,3.79
2022-11-24T01:28:55.251Z,3.75
2022-11-24T01:31:44.065Z,3.79
2022-11-24T01:34:30.281Z,3.76
2022-11-24T01:37:10.457Z,3.72
2022-11-24T01:39:43.491Z,3.69
2022-11-24T01:42:25.637Z,3.75
2022-11-24T01:45:49.257Z,3.69
2022-11-24T01:48:47.130Z,3.75
2022-11-24T01:51:27.179Z,3.77
2022-11-24T01:54:08.769Z,3.78
2022-11-24T01:56:44.769Z,3.73
2022-11-24T01:59:24.509Z,3.73
2022-11-24T02:01:59.806Z,3.76
2022-11-24T02:04:43.001Z,3.79
2022-11-24T02:07:23.508Z,3.73
2022-11-24T02:10:03.989Z,3.74
2022-11-24T02:12:36.435Z,3.74
2022-11-24T02:15:19.063Z,3.73
2022-11-24T02:17:57.262Z,3.75
2022-11-24T02:20:37.114Z,3.75
2022-11-24T02:23:30.832Z,3.76
2022-11-24T02:26:18.009Z,3.72
2022-11-24T02:28:59.209Z,3.78
2022-11-24T02:31:41.369Z,3.75
2022-11-24T02:34:16.767Z,3.80
2022-11-24T02:36:57.736Z,3.77
2022-11-24T02:39:33.006Z,3.73
2022-11-24T02:42:22.774Z,3.75
2022-11-24T02:45:15.603Z,3.72
2022-11-24T02:48:03.548Z,3.80
2022-11-24T02:50:45.311Z,3.74
2022-11-24T02:53:22.186Z,3.70
2022-11-24T02:56:01.440Z,3.72
2022-11-24T02:58:40.165Z,3.62
2022-11-24T03:01:16.042Z,3.67
2022-11-24T03:03:50.555Z,3.61
2022-11-24T03:06:30.112Z,3.53
2022-11-24T03:09:12.126Z,3.55
2022-11-24T03:11:50.585Z,3.56
2022-11-24T03:14:28.592Z,3.55
2022-11-24T03:17:08.472Z,3.51
2022-11-24T03:19:51.218Z,3.47
2022-11-24T03:22:31.823Z,3.51
2022-11-24T03:25:13.230Z,3.51
2022-11-24T03:27:49.155Z,3.50
2022-11-24T03:30:22.375Z,3.48
2022-11-24T03:33:11.260Z,3.46
2022-11-24T03:35:47.755Z,3.58
2022-11-24T03:38:36.953Z,3.60
2022-11-24T03:41:16.494Z,3.53
2022-11-24T03:43:57.567Z,3.51
2022-11-24T03:46:42.638Z,3.52
2022-11-24T03:49:30.638Z,3.57
2022-11-24T03:52:27.567Z,3.52
2022-11-24T03:55:02.634Z,3.61
2022-11-24T03:57:47.564Z,3.52
2022-11-24T04:00:27.685Z,3.52
2022-11-24T04:03:00.766Z,3.53
2022-11-24T04:05:48.280Z,3.60
2022-11-24T04:08:28.003Z,3.53
2022-11-24T04:11:12.180Z,3.51
2022-11-24T04:13:43.310Z,3.49
2022-11-24T04:16:32.212Z,3.45
2022-11-24T04:19:11.243Z,3.48
2022-11-24T04:22:06.387Z,3.50
2022-11-24T04:24:38.818Z,3.49
2022-11-24T04:27:19.353Z,3.51
2022-11-24T04:29:59.613Z,3.55
2022-11-24T04:32:41.113Z,3.52
2022-11-24T04:35:17.614Z,3.54
2022-11-24T04:38:14.212Z,3.55
2022-11-24T04:41:18.769Z,3.50
2022-11-24T04:44:08.347Z,3.47
2022-11-24T04:46:48.242Z,3.46
2022-11-24T04:49:30.489Z,3.43
2022-11-24T04:52:09.471Z,3.46
2022-11-24T04:54:57.234Z,3.43
2022-11-24T04:57:36.183Z,3.42
2022-11-24T05:00:22.992Z,3.42
2022-11-24T05:02:58.479Z,3.44
2022-11-24T05:05:33.694Z,3.44
2022-11-24T05:08:11.220Z,3.45
2022-11-24T05:10:51.545Z,3.43
2022-11-24T05:13:29.363Z,3.46
2022-11-24T05:16:09.487Z,3.44
2022-11-24T05:18:46.714Z,3.42
2022-11-24T05:21:21.214Z,3.48
2022-11-24T05:24:00.358Z,3.50
2022-11-24T05:26:43.636Z,3.55
2022-11-24T05:29:23.740Z,3.57
2022-11-24T05:31:58.233Z,3.62
2022-11-24T05:34:49.367Z,3.60
2022-11-24T05:37:30.320Z,3.71
2022-11-24T05:40:10.195Z,3.69
2022-11-24T05:42:51.908Z,3.74
2022-11-24T05:45:31.550Z,3.74
2022-11-24T05:48:13.800Z,3.71
2022-11-24T05:50:46.115Z,3.72
2022-11-24T05:53:22.437Z,3.69
2022-11-24T05:55:57.441Z,3.67
2022-11-24T05:58:40.207Z,3.68
2022-11-24T06:01:22.117Z,3.72
2022-11-24T06:04:05.467Z,3.70
2022-11-24T06:06:38.914Z,3.74
2022-11-24T06:09:14.869Z,3.78
2022-11-24T06:11:54.132Z,3.82
2022-11-24T06:14:42.837Z,3.85
2022-11-24T06:17:18.620Z,3.83
2022-11-24T06:19:56.443Z,3.80
2022-11-24T06:22:27.966Z,3.82
2022-11-24T06:25:11.106Z,3.77
2022-11-24T06:27:52.150Z,3.80
2022-11-24T06:30:42.484Z,3.74
2022-11-24T06:33:24.543Z,3.78
2022-11-24T06:36:09.192Z,3.75
2022-11-24T06:38:48.994Z,3.76
2022-11-24T06:41:30.946Z,3.77
2022-11-24T06:44:04.779Z,3.92
2022-11-24T06:46:37.383Z,3.97
2022-11-24T06:49:07.456Z,3.99
2022-11-24T06:51:37.925Z,4.04
2022-11-24T06:54:10.352Z,4.09
2022-11-24T06:56:40.426Z,4.10
2022-11-24T06:59:10.671Z,4.07
2022-11-24T07:01:43.541Z,4.14
2022-11-24T07:04:13.751Z,4.11
2022-11-24T07:06:46.765Z,4.04
2022-11-24T07:09:17.641Z,4.20
2022-11-24T07:11:49.855Z,4.14
2022-11-24T07:14:20.179Z,4.11
2022-11-24T07:16:53.041Z,4.21
2022-11-24T07:19:25.500Z,4.22
2022-11-24T07:21:56.620Z,4.22
2022-11-24T07:24:34.441Z,4.18
2022-11-24T07:27:11.506Z,4.22
2022-11-24T07:29:41.991Z,4.25
2022-11-24T07:32:15.515Z,4.25
2022-11-24T07:34:47.846Z,4.29
2022-11-24T07:37:22.867Z,4.29
2022-11-24T07:39:55.719Z,4.33
2022-11-24T07:42:27.389Z,4.44
2022-11-24T07:44:57.585Z,4.43
2022-11-24T07:47:31.826Z,4.47
2022-11-24T07:50:11.292Z,4.47
2022-11-24T07:52:41.620Z,4.38
2022-11-24T07:55:16.090Z,4.43
2022-11-24T07:57:54.947Z,4.38
2022-11-24T08:00:28.251Z,4.41
2022-11-24T08:03:02.219Z,4.41
2022-11-24T08:05:33.513Z,4.39
2022-11-24T08:08:12.356Z,4.38
2022-11-24T08:10:47.993Z,4.40
2022-11-24T08:13:20.399Z,4.39
2022-11-24T08:15:54.439Z,4.43
2022-11-24T08:18:31.437Z,4.47
2022-11-24T08:21:10.375Z,4.45
2022-11-24T08:23:42.577Z,4.52
2022-11-24T08:26:18.986Z,4.54
2022-11-24T08:29:00.947Z,4.56
2022-11-24T08:31:36.468Z,4.59
2022-11-24T08:34:24.529Z,4.61
2022-11-24T08:36:55.735Z,4.60
2022-11-24T08:39:28.568Z,4.65
2022-11-24T08:42:03.597Z,4.71
2022-11-24T08:44:47.349Z,4.68
2022-11-24T08:47:24.678Z,4.63
2022-11-24T08:50:11.938Z,4.70
2022-11-24T08:52:45.333Z,4.68
2022-11-24T08:55:38.908Z,4.74
2022-11-24T08:58:16.753Z,4.74
2022-11-24T09:01:07.440Z,4.82
2022-11-24T09:03:43.404Z,4.73
2022-11-24T09:06:23.732Z,4.82
2022-11-24T09:08:54.719Z,4.78
2022-11-24T09:11:25.679Z,4.80
2022-11-24T09:13:56.603Z,4.86
2022-11-24T09:16:29.758Z,4.86
2022-11-24T09:19:01.688Z,4.87
2022-11-24T09:21:38.085Z,4.86
2022-11-24T09:24:10.013Z,4.86
2022-11-24T09:26:47.298Z,4.90
2022-11-24T09:29:18.961Z,4.94
2022-11-24T09:31:49.250Z,4.99
2022-11-24T09:34:19.852Z,5.04
2022-11-24T09:36:52.752Z,5.06
2022-11-24T09:39:25.215Z,5.10
2022-11-24T09:42:11.042Z,5.11
2022-11-24T09:45:15.515Z,5.18
2022-11-24T09:48:04.585Z,5.22
2022-11-24T09:50:38.215Z,5.26
2022-11-24T09:53:28.771Z,5.32
2022-11-24T09:56:06.803Z,5.37
2022-11-24T09:58:56.096Z,5.34
2022-11-24T10:01:32.961Z,5.32
2022-11-24T10:04:06.612Z,5.34
2022-11-24T10:06:41.777Z,5.40
2022-11-24T10:09:41.751Z,5.32
2022-11-24T10:12:24.503Z,5.36
2022-11-24T10:15:23.310Z,5.41
2022-11-24T10:18:16.206Z,5.46
2022-11-24T10:20:56.520Z,5.49
2022-11-24T10:24:00.884Z,5.59
2022-11-24T10:26:40.847Z,5.49
2022-11-24T10:29:23.398Z,5.55
2022-11-24T10:31:58.465Z,5.59
2022-11-24T10:34:35.552Z,5.65
2022-11-24T10:37:17.253Z,5.65
2022-11-24T10:40:00.252Z,5.69
2022-11-24T10:42:37.231Z,5.78
2022-11-24T10:45:16.906Z,5.72
2022-11-24T10:47:53.379Z,5.70
2022-11-24T10:50:30.934Z,5.79
2022-11-24T10:53:10.544Z,5.82
2022-11-24T10:56:07.097Z,5.87
2022-11-24T10:58:43.852Z,5.90
2022-11-24T11:01:37.916Z,5.92
2022-11-24T11:04:22.482Z,5.91
2022-11-24T11:06:53.394Z,6.03
2022-11-24T11:09:33.236Z,6.01
2022-11-24T11:12:42.718Z,6.03
2022-11-24T11:15:35.811Z,6.03
2022-11-24T11:18:08.735Z,6.06
2022-11-24T11:20:41.383Z,6.12
2022-11-24T11:23:23.287Z,6.16
2022-11-24T11:25:55.466Z,6.17
2022-11-24T11:28:31.895Z,6.18
2022-11-24T11:31:16.695Z,6.18
2022-11-24T11:34:06.246Z,6.20
2022-11-24T11:36:45.183Z,6.22
2022-11-24T11:39:35.780Z,6.14
2022-11-24T11:42:45.150Z,6.14
2022-11-24T11:45:18.078Z,6.10
2022-11-24T11:48:00.487Z,6.06
2022-11-24T11:50:59.181Z,6.05
2022-11-24T11:53:39.099Z,6.01
2022-11-24T11:56:24.457Z,5.99
2022-11-24T11:59:09.548Z,5.93
2022-11-24T12:02:05.578Z,5.93
2022-11-24T12:04:48.279Z,5.91
2022-11-24T12:07:43.174Z,5.89
2022-11-24T12:10:23.615Z,5.88
2022-11-24T12:13:06.893Z,5.85
2022-11-24T12:15:44.541Z,5.84
2022-11-24T12:18:56.376Z,5.85
2022-11-24T12:21:32.847Z,5.78
2022-11-24T12:24:12.742Z,5.74
2022-11-24T12:26:49.718Z,5.78
2022-11-24T12:29:38.262Z,5.85
2022-11-24T12:32:21.723Z,5.84
2022-11-24T12:34:57.518Z,5.90
2022-11-24T12:37:53.733Z,5.90
2022-11-24T12:40:35.743Z,5.94
2022-11-24T12:43:18.305Z,5.96
2022-11-24T12:45:58.079Z,5.98
2022-11-24T12:48:47.968Z,6.07
2022-11-24T12:51:22.283Z,6.25
2022-11-24T12:53:57.403Z,6.26
2022-11-24T12:56:34.842Z,6.47
2022-11-24T12:59:18.941Z,6.45
2022-11-24T13:01:52.705Z,6.51
2022-11-24T13:04:38.247Z,6.58
2022-11-24T13:07:15.515Z,6.72
2022-11-24T13:10:16.047Z,6.73
2022-11-24T13:13:01.541Z,6.76
2022-11-24T13:15:45.546Z,6.85
2022-11-24T13:18:48.382Z,6.85
2022-11-24T13:21:50.560Z,6.70
2022-11-24T13:24:36.742Z,6.62
2022-11-24T13:27:45.578Z,6.53
2022-11-24T13:30:53.420Z,6.44
2022-11-24T13:33:36.720Z,6.50
2022-11-24T13:36:37.871Z,6.47
2022-11-24T13:39:23.677Z,6.44
2022-11-24T13:42:04.697Z,6.49
2022-11-24T13:44:52.585Z,6.51
2022-11-24T13:47:39.719Z,6.59
2022-11-24T13:50:24.943Z,6.70
2022-11-24T13:53:02.198Z,6.64
2022-11-24T13:55:38.996Z,6.67
2022-11-24T13:58:29.727Z,6.58
2022-11-24T14:01:06.903Z,6.54
2022-11-24T14:03:40.044Z,6.57
2022-11-24T14:06:20.374Z,6.41
2022-11-24T14:08:52.087Z,6.33
2022-11-24T14:11:28.707Z,6.28
2022-11-24T14:13:59.875Z,6.22
2022-11-24T14:16:30.532Z,6.08
2022-11-24T14:19:13.094Z,6.00
2022-11-24T14:21:46.705Z,6.01
2022-11-24T14:24:39.737Z,5.90
2022-11-24T14:27:18.113Z,5.83
2022-11-24T14:30:05.956Z,5.79
2022-11-24T14:32:37.997Z,5.76
2022-11-24T14:35:26.266Z,5.68
2022-11-24T14:38:00.492Z,5.59
2022-11-24T14:40:45.504Z,5.61
2022-11-24T14:43:25.764Z,5.45
2022-11-24T14:46:00.163Z,5.32
2022-11-24T14:48:32.315Z,5.33
2022-11-24T14:51:17.365Z,5.29
2022-11-24T14:53:58.570Z,5.09
2022-11-24T14:56:38.333Z,5.08
2022-11-24T14:59:25.713Z,5.10
2022-11-24T15:01:57.270Z,5.06
2022-11-24T15:07:27.808Z,4.84
2022-11-24T15:10:08.350Z,4.72
2022-11-24T15:12:43.673Z,4.72
2022-11-24T15:15:22.833Z,4.58
2022-11-24T15:17:55.854Z,4.51
2022-11-24T15:20:32.211Z,4.38
2022-11-24T15:23:24.276Z,4.38
2022-11-24T15:25:59.777Z,4.39
2022-11-24T15:28:30.758Z,4.35
2022-11-24T15:31:04.742Z,4.31
2022-11-24T15:33:35.766Z,4.31
2022-11-24T15:36:08.377Z,4.25
2022-11-24T15:38:40.784Z,4.16
2022-11-24T15:41:22.810Z,4.00
2022-11-24T15:43:59.278Z,3.97
2022-11-24T15:46:30.819Z,3.94
2022-11-24T15:49:02.463Z,3.88
2022-11-24T15:51:34.197Z,3.86
2022-11-24T15:54:07.610Z,3.83
2022-11-24T15:56:42.653Z,3.89
2022-11-24T15:59:20.547Z,3.95
2022-11-24T16:01:56.832Z,3.92
2022-11-24T16:04:29.659Z,3.94
2022-11-24T16:07:06.605Z,3.91
2022-11-24T16:09:38.105Z,3.93
2022-11-24T16:12:13.024Z,4.01
2022-11-24T16:14:44.867Z,4.04
2022-11-24T16:17:17.791Z,3.91
2022-11-24T16:19:59.838Z,3.88
2022-11-24T16:22:30.952Z,3.89
2022-11-24T16:25:03.013Z,3.75
2022-11-24T16:27:41.263Z,3.67
2022-11-24T16:30:14.320Z,3.60
2022-11-24T16:32:46.469Z,3.62
2022-11-24T16:35:19.741Z,3.72
2022-11-24T16:37:51.694Z,3.65
2022-11-24T16:40:23.095Z,3.66
2022-11-24T16:42:56.566Z,3.64
2022-11-24T16:45:28.519Z,3.71
2022-11-24T16:48:00.673Z,3.79
2022-11-24T16:50:31.748Z,3.74
2022-11-24T16:53:03.626Z,3.84
2022-11-24T16:55:34.645Z,3.84
2022-11-24T16:58:25.330Z,3.87
2022-11-24T17:01:00.476Z,3.88
2022-11-24T17:03:34.348Z,3.87
2022-11-24T17:06:05.659Z,3.80
2022-11-24T17:08:39.769Z,3.85
2022-11-24T17:11:21.633Z,3.78
2022-11-24T17:14:01.449Z,3.81
2022-11-24T17:16:33.344Z,3.83
2022-11-24T17:19:06.018Z,3.76
2022-11-24T17:21:44.599Z,3.76
2022-11-24T17:24:17.810Z,3.73
2022-11-24T17:26:52.876Z,3.74
2022-11-24T17:29:30.220Z,3.78
2022-11-24T17:32:01.521Z,3.90
2022-11-24T17:34:31.685Z,3.83
2022-11-24T17:37:02.248Z,3.80
2022-11-24T17:39:33.640Z,3.83
2022-11-24T17:42:03.800Z,3.93
2022-11-24T17:44:37.915Z,3.88
2022-11-24T17:47:08.221Z,3.95
2022-11-24T17:49:38.335Z,4.00
2022-11-24T17:52:18.884Z,3.96
2022-11-24T17:54:51.209Z,3.99
2022-11-24T17:57:21.791Z,3.98
2022-11-24T17:59:59.352Z,3.91
2022-11-24T18:02:32.686Z,3.88
2022-11-24T18:05:20.327Z,3.83
2022-11-24T18:07:57.630Z,3.80
2022-11-24T18:10:32.582Z,3.86
2022-11-24T18:13:05.749Z,3.75
2022-11-24T18:16:04.411Z,3.74
2022-11-24T18:18:45.966Z,3.66
2022-11-24T18:21:27.488Z,3.62
2022-11-24T18:24:07.258Z,3.58
2022-11-24T18:26:39.000Z,3.63
2022-11-24T18:29:15.674Z,3.71
2022-11-24T18:32:02.717Z,3.56
2022-11-24T18:34:35.218Z,3.55
2022-11-24T18:37:11.133Z,3.59
2022-11-24T18:39:50.457Z,3.56
2022-11-24T18:42:25.743Z,3.51
2022-11-24T18:45:01.017Z,3.45
2022-11-24T18:47:36.589Z,3.43
2022-11-24T18:50:14.630Z,3.49
2022-11-24T18:52:56.963Z,3.38
2022-11-24T18:55:31.398Z,3.36
2022-11-24T18:58:03.279Z,3.35
2022-11-24T19:00:42.900Z,3.28
2022-11-24T19:03:22.862Z,3.15
2022-11-24T19:05:55.775Z,3.16
2022-11-24T19:08:31.640Z,3.14
2022-11-24T19:11:10.827Z,3.13
2022-11-24T19:13:42.937Z,3.12
2022-11-24T19:16:18.429Z,3.08
2022-11-24T19:18:58.096Z,3.08
2022-11-24T19:21:30.443Z,3.06
2022-11-24T19:24:05.647Z,3.16
2022-11-24T19:26:43.074Z,3.22
2022-11-24T19:29:20.657Z,3.14
2022-11-24T19:32:02.040Z,3.14
2022-11-24T19:34:42.316Z,3.18
2022-11-24T19:37:13.431Z,3.33
2022-11-24T19:39:46.725Z,3.30
2022-11-24T19:42:25.783Z,3.37
2022-11-24T19:45:05.136Z,3.41
2022-11-24T19:47:37.760Z,3.45
2022-11-24T19:50:14.791Z,3.56
2022-11-24T19:52:46.723Z,3.53
2022-11-24T19:55:21.861Z,3.59
2022-11-24T19:57:57.788Z,3.60
2022-11-24T20:00:35.245Z,3.62
2022-11-24T20:03:26.013Z,3.72
2022-11-24T20:06:28.279Z,3.71
2022-11-24T20:09:01.313Z,3.65
2022-11-24T20:11:37.881Z,3.70
2022-11-24T20:14:19.067Z,3.73
2022-11-24T20:16:51.634Z,3.64
2022-11-24T20:19:32.099Z,3.66
2022-11-24T20:22:17.317Z,3.69
2022-11-24T20:24:50.572Z,3.69
2022-11-24T20:27:23.800Z,3.70
2022-11-24T20:30:08.062Z,3.68
2022-11-24T20:32:39.783Z,3.71
2022-11-24T20:35:18.349Z,3.70
2022-11-24T20:38:06.494Z,3.73
2022-11-24T20:40:41.502Z,3.79
2022-11-24T20:43:15.116Z,3.84
2022-11-24T20:46:01.833Z,3.84
2022-11-24T20:48:42.580Z,3.78
2022-11-24T20:51:21.557Z,3.82
2022-11-24T20:54:01.967Z,3.83
2022-11-24T20:56:40.113Z,3.84
2022-11-24T20:59:23.256Z,3.78
2022-11-24T21:02:04.269Z,3.78
2022-11-24T21:04:40.570Z,3.79
2022-11-24T21:07:17.014Z,3.76
2022-11-24T21:09:52.967Z,3.75
2022-11-24T21:12:27.864Z,3.72
2022-11-24T21:15:08.847Z,3.76
2022-11-24T21:17:46.868Z,3.71
2022-11-24T21:20:21.996Z,3.68
2022-11-24T21:22:52.862Z,3.64
2022-11-24T21:25:28.845Z,3.63
2022-11-24T21:28:04.091Z,3.62
2022-11-24T21:30:40.706Z,3.52
2022-11-24T21:33:21.317Z,3.53
2022-11-24T21:35:53.957Z,3.51
2022-11-24T21:38:25.627Z,3.47
2022-11-24T21:41:06.838Z,3.50
2022-11-24T21:43:59.012Z,3.39
2022-11-24T21:46:42.148Z,3.40
2022-11-24T21:49:18.801Z,3.43
2022-11-24T21:51:55.691Z,3.47
2022-11-24T21:54:27.962Z,3.41
2022-11-24T21:57:01.548Z,3.37
2022-11-24T21:59:34.018Z,3.39
2022-11-24T22:02:13.399Z,3.33
2022-11-24T22:04:44.263Z,3.29
2022-11-24T22:07:16.325Z,3.31
2022-11-24T22:09:49.352Z,3.33
2022-11-24T22:12:22.929Z,3.32
2022-11-24T22:14:54.088Z,3.31
2022-11-24T22:17:29.048Z,3.39
2022-11-24T22:20:06.672Z,3.31
2022-11-24T22:22:39.600Z,3.33
2022-11-24T22:25:15.190Z,3.39
2022-11-24T22:27:49.499Z,3.36
2022-11-24T22:30:21.220Z,3.33
2022-11-24T22:32:52.483Z,3.35
2022-11-24T22:35:25.194Z,3.38
2022-11-24T22:37:58.164Z,3.40
2022-11-24T22:40:31.173Z,3.38
2022-11-24T22:43:13.332Z,3.39
2022-11-24T22:45:45.738Z,3.33
2022-11-24T22:48:18.682Z,3.31
2022-11-24T22:50:50.273Z,3.31
2022-11-24T22:53:21.612Z,3.39
2022-11-24T22:55:58.608Z,3.38
2022-11-24T22:58:39.732Z,3.42
2022-11-24T23:01:15.089Z,3.55
2022-11-24T23:03:46.378Z,3.44
2022-11-24T23:06:23.293Z,3.45
2022-11-24T23:08:55.559Z,3.40
2022-11-24T23:11:37.441Z,3.53
2022-11-24T23:14:15.242Z,3.48
2022-11-24T23:16:47.845Z,3.47
2022-11-24T23:19:20.641Z,3.61
2022-11-24T23:21:51.624Z,3.55
2022-11-24T23:24:22.976Z,3.51
2022-11-24T23:26:54.601Z,3.48
2022-11-24T23:29:29.089Z,3.49
2022-11-24T23:32:00.918Z,3.44
2022-11-24T23:34:32.441Z,3.48
2022-11-24T23:37:04.230Z,3.56
2022-11-24T23:39:40.724Z,3.52
2022-11-24T23:42:13.817Z,3.53
2022-11-24T23:44:47.467Z,3.48
2022-11-24T23:47:18.786Z,3.53
2022-11-24T23:49:50.139Z,3.45
2022-11-24T23:52:20.646Z,3.39
2022-11-24T23:54:51.651Z,3.41
2022-11-24T23:57:22.731Z,3.36
